Time;durP1;ratioP1;P1;durP2;ratioP2;P2;SDS_P1;SDS_P2;PMS_P1;PMS_P2;Temp;Humidity;BMP_temperature;BMP_pressure;BME280_temperature;BME280_humidity;BME280_pressure;Samples;Min_cycle;Max_cycle;Signal;HPM_P1;HPM_P2
2024/02/21 00:00:57;;;;;;;15.48;4.75;;;9.90;99.90;;;;;;5093368;28;20479;-84
2024/02/21 00:03:23;;;;;;;13.13;3.72;;;9.90;99.90;;;;;;5094266;28;20442;-84
2024/02/21 00:05:48;;;;;;;15.60;3.80;;;10.00;99.90;;;;;;5092382;28;20070;-84
2024/02/21 00:08:14;;;;;;;15.18;3.92;;;10.00;99.90;;;;;;5092987;28;20111;-84
2024/02/21 00:10:39;;;;;;;15.88;4.03;;;10.10;99.90;;;;;;5084728;28;20028;-83
2024/02/21 00:13:05;;;;;;;13.05;4.15;;;10.00;99.90;;;;;;5091571;28;20045;-85
2024/02/21 00:15:31;;;;;;;14.93;4.00;;;10.00;99.90;;;;;;5091892;28;20028;-84
2024/02/21 00:17:56;;;;;;;16.83;3.78;;;10.00;99.90;;;;;;5082437;28;20027;-82
2024/02/21 00:20:22;;;;;;;15.43;3.97;;;10.00;99.90;;;;;;5084748;28;20024;-84
2024/02/21 00:22:47;;;;;;;13.25;3.85;;;10.00;99.90;;;;;;5072468;28;20063;-83
2024/02/21 00:25:13;;;;;;;12.35;3.33;;;10.00;99.90;;;;;;5071239;28;20020;-83
2024/02/21 00:27:39;;;;;;;14.07;3.97;;;10.00;99.90;;;;;;5071923;28;20479;-83
2024/02/21 00:30:05;;;;;;;9.18;3.60;;;10.00;99.90;;;;;;5076596;28;20062;-84
2024/02/21 00:32:33;;;;;;;16.85;3.88;;;9.90;99.90;;;;;;5092250;28;20476;-84
2024/02/21 00:34:59;;;;;;;17.35;4.28;;;10.00;99.90;;;;;;5092901;28;20386;-83
2024/02/21 00:37:25;;;;;;;18.92;4.57;;;10.00;99.90;;;;;;5088209;28;20028;-84
2024/02/21 00:39:50;;;;;;;13.40;3.60;;;10.00;99.90;;;;;;5084017;28;20028;-84
2024/02/21 00:42:15;;;;;;;14.40;5.05;;;10.00;99.90;;;;;;5086499;28;21975;-84
2024/02/21 00:44:41;;;;;;;17.70;3.75;;;10.00;99.90;;;;;;5090778;28;20024;-84
2024/02/21 00:47:07;;;;;;;14.38;4.72;;;10.00;99.90;;;;;;5092408;28;20112;-84
2024/02/21 00:49:32;;;;;;;8.32;3.42;;;10.00;99.90;;;;;;5091442;28;20020;-84
2024/02/21 00:51:58;;;;;;;16.92;4.43;;;10.00;99.90;;;;;;5089585;28;20035;-84
2024/02/21 00:54:23;;;;;;;9.85;3.53;;;10.00;99.90;;;;;;5092423;28;20031;-83
2024/02/21 00:56:49;;;;;;;10.32;3.47;;;10.00;99.90;;;;;;5091222;28;20028;-84
2024/02/21 00:59:14;;;;;;;18.30;4.70;;;9.90;99.90;;;;;;5088360;28;20036;-84
2024/02/21 01:01:42;;;;;;;17.85;3.70;;;9.80;99.90;;;;;;5079371;28;20051;-83
2024/02/21 01:04:09;;;;;;;7.05;3.40;;;9.80;99.90;;;;;;5091578;28;20483;-84
2024/02/21 01:06:34;;;;;;;18.75;4.07;;;9.80;99.90;;;;;;5078507;28;20538;-83
2024/02/21 01:09:00;;;;;;;19.10;4.40;;;9.70;99.90;;;;;;5071296;28;20028;-84
2024/02/21 01:11:25;;;;;;;15.65;4.05;;;9.80;99.90;;;;;;5071064;28;20074;-83
2024/02/21 01:13:51;;;;;;;17.45;4.18;;;9.70;99.90;;;;;;5071036;28;20062;-84
2024/02/21 01:16:16;;;;;;;11.43;3.75;;;9.70;99.90;;;;;;5072057;28;20013;-84
2024/02/21 01:18:42;;;;;;;15.30;3.75;;;9.70;99.90;;;;;;5071420;28;20050;-83
2024/02/21 01:21:08;;;;;;;20.20;4.68;;;9.70;99.90;;;;;;5085183;28;20182;-84
2024/02/21 01:23:35;;;;;;;11.95;4.88;;;9.80;99.90;;;;;;5084252;28;20043;-83
2024/02/21 01:26:01;;;;;;;10.25;4.22;;;9.70;99.90;;;;;;5071109;28;20032;-82
2024/02/21 01:28:26;;;;;;;8.10;4.10;;;9.80;99.90;;;;;;5068977;28;20388;-83
2024/02/21 01:30:52;;;;;;;25.65;5.38;;;9.70;99.90;;;;;;5069419;28;20029;-82
2024/02/21 01:33:17;;;;;;;15.32;4.13;;;10.60;99.90;;;;;;5073427;28;20033;-83
2024/02/21 01:35:43;;;;;;;10.40;3.85;;;9.80;99.90;;;;;;5069619;28;20021;-83
2024/02/21 01:38:08;;;;;;;13.07;4.32;;;9.70;99.90;;;;;;5070455;28;20054;-83
2024/02/21 01:40:34;;;;;;;12.48;4.20;;;9.80;99.90;;;;;;5075731;28;20163;-83
2024/02/21 01:42:59;;;;;;;20.55;4.47;;;9.80;99.90;;;;;;5085987;28;20030;-85
2024/02/21 01:45:25;;;;;;;13.27;4.25;;;9.80;99.90;;;;;;5069950;28;20078;-85
2024/02/21 01:47:51;;;;;;;15.48;3.92;;;9.80;99.90;;;;;;5070025;28;20078;-83
2024/02/21 01:50:17;;;;;;;17.80;3.92;;;9.80;99.90;;;;;;5069330;28;20028;-84
2024/02/21 01:52:46;;;;;;;14.43;3.97;;;9.80;99.90;;;;;;5069076;28;20024;-85
2024/02/21 01:55:13;;;;;;;14.90;4.03;;;9.80;99.90;;;;;;5072527;28;20028;-86
2024/02/21 01:57:40;;;;;;;9.15;3.20;;;9.80;99.90;;;;;;5074963;28;20027;-85
2024/02/21 02:00:07;;;;;;;15.13;3.00;;;9.80;99.90;;;;;;5074833;28;20020;-85
2024/02/21 02:02:33;;;;;;;13.13;3.70;;;9.80;99.90;;;;;;5082453;28;20044;-86
2024/02/21 02:05:00;;;;;;;16.98;4.10;;;9.80;99.90;;;;;;5073968;28;20036;-85
2024/02/21 02:07:25;;;;;;;17.75;4.03;;;9.80;99.90;;;;;;5073962;28;20028;-85
2024/02/21 02:09:51;;;;;;;12.38;4.50;;;9.80;99.90;;;;;;5074619;28;20537;-85
2024/02/21 02:12:17;;;;;;;11.65;3.92;;;9.80;99.90;;;;;;5073792;28;20098;-86
2024/02/21 02:14:42;;;;;;;12.10;3.67;;;9.80;99.90;;;;;;5077687;28;20463;-86
2024/02/21 02:17:09;;;;;;;17.63;4.30;;;9.80;99.90;;;;;;5094604;28;20045;-85
2024/02/21 02:19:34;;;;;;;10.77;3.92;;;9.90;99.90;;;;;;5094641;28;20514;-86
2024/02/21 02:22:09;;;;;;;13.30;4.05;;;9.90;99.90;;;;;;5095827;28;20024;-86
2024/02/21 02:24:35;;;;;;;17.40;4.30;;;9.90;99.90;;;;;;5087239;28;20043;-85
2024/02/21 02:27:00;;;;;;;17.25;4.93;;;9.80;99.90;;;;;;5089389;28;20021;-85
2024/02/21 02:29:26;;;;;;;14.20;3.60;;;9.80;99.90;;;;;;5094508;28;20035;-84
2024/02/21 02:31:51;;;;;;;16.13;4.38;;;9.80;99.90;;;;;;5094061;28;20024;-85
2024/02/21 02:34:17;;;;;;;11.90;4.07;;;9.80;99.90;;;;;;5085711;28;20353;-84
2024/02/21 02:36:42;;;;;;;7.90;3.83;;;9.80;99.90;;;;;;5074804;28;20094;-85
2024/02/21 02:39:08;;;;;;;9.52;4.15;;;9.80;99.90;;;;;;5073657;28;20440;-82
2024/02/21 02:41:36;;;;;;;13.65;5.65;;;9.80;99.90;;;;;;5072054;28;20501;-84
2024/02/21 02:44:01;;;;;;;12.48;4.18;;;9.80;99.90;;;;;;5074233;28;20116;-83
2024/02/21 02:46:27;;;;;;;10.23;3.78;;;9.90;99.90;;;;;;5074226;28;20155;-84
2024/02/21 02:48:52;;;;;;;12.38;3.80;;;9.90;99.90;;;;;;5074267;28;20056;-83
2024/02/21 02:51:18;;;;;;;15.98;4.03;;;9.90;99.90;;;;;;5081219;28;20509;-83
2024/02/21 02:53:44;;;;;;;16.50;4.20;;;9.90;99.90;;;;;;5088580;28;20510;-82
2024/02/21 02:56:17;;;;;;;14.60;4.78;;;9.80;99.90;;;;;;5073328;28;20040;-82
2024/02/21 02:58:44;;;;;;;9.35;4.20;;;9.90;99.90;;;;;;5082393;28;20038;-82
2024/02/21 03:01:09;;;;;;;11.02;4.20;;;9.90;99.90;;;;;;5083085;28;20055;-82
2024/02/21 03:03:35;;;;;;;9.63;4.30;;;9.90;99.90;;;;;;5073427;28;20072;-83
2024/02/21 03:06:01;;;;;;;13.95;4.03;;;9.80;99.90;;;;;;5074732;28;20543;-84
2024/02/21 03:08:26;;;;;;;13.20;4.45;;;9.90;99.90;;;;;;5083402;28;20103;-82
2024/02/21 03:10:52;;;;;;;11.75;4.15;;;9.80;99.90;;;;;;5093283;28;20020;-82
2024/02/21 03:13:17;;;;;;;12.88;4.40;;;9.90;99.90;;;;;;5091735;28;20024;-84
2024/02/21 03:15:43;;;;;;;10.55;3.67;;;9.80;99.90;;;;;;5094778;28;20066;-85
2024/02/21 03:18:08;;;;;;;12.02;4.60;;;9.90;99.90;;;;;;5094206;28;20086;-84
2024/02/21 03:20:34;;;;;;;8.45;3.83;;;9.80;99.90;;;;;;5093203;28;20024;-84
2024/02/21 03:23:00;;;;;;;11.13;3.83;;;9.90;99.90;;;;;;5092381;28;20024;-84
2024/02/21 03:25:25;;;;;;;12.80;3.95;;;9.90;99.90;;;;;;5094065;28;20375;-84
2024/02/21 03:27:51;;;;;;;6.97;3.75;;;9.90;99.90;;;;;;5079383;28;20059;-83
2024/02/21 03:30:17;;;;;;;9.52;4.47;;;9.90;99.90;;;;;;5072983;28;20101;-82
2024/02/21 03:32:42;;;;;;;6.93;3.97;;;9.90;99.90;;;;;;5073148;28;20029;-83
2024/02/21 03:35:08;;;;;;;8.30;4.15;;;9.90;99.90;;;;;;5089913;28;20077;-83
2024/02/21 03:37:33;;;;;;;7.63;4.25;;;9.80;99.90;;;;;;5074338;28;20082;-84
2024/02/21 03:39:59;;;;;;;11.00;4.47;;;9.80;99.90;;;;;;5073118;28;20024;-84
2024/02/21 03:42:25;;;;;;;11.00;5.03;;;9.80;99.90;;;;;;5071971;28;20036;-83
2024/02/21 03:44:50;;;;;;;7.55;4.25;;;9.80;99.90;;;;;;5077314;28;20035;-84
2024/02/21 03:47:16;;;;;;;12.25;4.25;;;9.80;99.90;;;;;;5082704;28;20030;-82
2024/02/21 03:49:42;;;;;;;12.70;5.00;;;9.80;99.90;;;;;;5092207;28;20468;-84
2024/02/21 03:52:08;;;;;;;12.10;4.75;;;9.90;99.90;;;;;;5092682;28;20468;-84
2024/02/21 03:54:34;;;;;;;9.93;4.95;;;9.80;99.90;;;;;;5091963;28;20031;-84
2024/02/21 03:56:59;;;;;;;8.57;4.43;;;9.90;99.90;;;;;;5092547;28;20024;-83
2024/02/21 03:59:25;;;;;;;8.95;4.90;;;9.90;99.90;;;;;;5092444;28;20028;-83
2024/02/21 04:01:54;;;;;;;9.23;4.63;;;9.80;99.90;;;;;;5091809;28;20020;-85
2024/02/21 04:04:19;;;;;;;11.57;5.03;;;9.80;99.90;;;;;;5092967;28;20040;-83
2024/02/21 04:06:49;;;;;;;9.95;4.63;;;9.90;99.90;;;;;;5087818;28;20156;-84
2024/02/21 04:09:14;;;;;;;11.65;5.10;;;9.90;99.90;;;;;;5091993;28;20475;-84
2024/02/21 04:11:40;;;;;;;12.68;5.97;;;9.80;99.90;;;;;;5073004;28;20032;-83
2024/02/21 04:14:06;;;;;;;8.18;5.65;;;9.80;99.90;;;;;;5074464;28;20025;-83
2024/02/21 04:16:32;;;;;;;8.23;5.43;;;9.80;99.90;;;;;;5072424;28;20033;-85
2024/02/21 04:18:58;;;;;;;9.20;5.88;;;10.40;99.90;;;;;;5071656;28;20067;-84
2024/02/21 04:21:23;;;;;;;8.30;5.90;;;9.70;99.90;;;;;;5071946;28;20059;-84
2024/02/21 04:23:49;;;;;;;12.35;5.88;;;9.70;99.90;;;;;;5073019;28;20563;-83
2024/02/21 04:26:14;;;;;;;12.50;6.85;;;9.70;99.90;;;;;;5072470;28;20418;-84
2024/02/21 04:28:40;;;;;;;10.00;6.68;;;9.70;99.90;;;;;;5086598;28;20509;-83
2024/02/21 04:31:05;;;;;;;9.57;6.95;;;9.70;99.90;;;;;;5090929;28;20020;-83
2024/02/21 04:33:31;;;;;;;10.10;6.28;;;9.70;99.90;;;;;;5092345;28;20024;-84
2024/02/21 04:35:58;;;;;;;8.75;6.90;;;9.70;99.90;;;;;;5092616;28;20381;-84
2024/02/21 04:38:24;;;;;;;9.70;6.70;;;9.70;99.90;;;;;;5090784;28;20028;-84
2024/02/21 04:40:49;;;;;;;8.43;6.50;;;9.70;99.90;;;;;;5070703;28;20052;-83
2024/02/21 04:43:15;;;;;;;8.25;6.57;;;9.60;99.90;;;;;;5071255;28;20043;-85
2024/02/21 04:45:41;;;;;;;12.77;7.55;;;9.60;99.90;;;;;;5085429;28;20029;-85
2024/02/21 04:48:06;;;;;;;8.40;7.60;;;9.60;99.90;;;;;;5089607;28;20472;-84
2024/02/21 04:50:32;;;;;;;11.27;7.28;;;9.60;99.90;;;;;;5071004;28;20862;-82
2024/02/21 04:52:58;;;;;;;12.23;6.72;;;9.60;99.90;;;;;;5072308;28;20039;-84
2024/02/21 04:55:23;;;;;;;12.07;7.07;;;9.60;99.90;;;;;;5071648;28;20110;-84
2024/02/21 04:57:49;;;;;;;13.55;6.63;;;9.60;99.90;;;;;;5070802;28;20052;-84
2024/02/21 05:00:15;;;;;;;13.30;6.75;;;9.60;99.90;;;;;;5070957;28;20613;-84
2024/02/21 05:02:40;;;;;;;10.43;6.57;;;9.60;99.90;;;;;;5072191;28;20036;-84
2024/02/21 05:05:06;;;;;;;12.95;7.15;;;9.60;99.90;;;;;;5071217;28;20025;-84
2024/02/21 05:07:32;;;;;;;13.32;7.63;;;9.60;99.90;;;;;;5071875;28;20035;-85
2024/02/21 05:09:57;;;;;;;20.83;8.38;;;9.70;99.90;;;;;;5070283;28;20031;-85
2024/02/21 05:12:23;;;;;;;15.07;7.13;;;9.60;99.90;;;;;;5076149;28;20028;-85
2024/02/21 05:14:48;;;;;;;12.05;6.80;;;9.60;99.90;;;;;;5092000;28;20460;-85
2024/02/21 05:17:15;;;;;;;10.65;7.18;;;9.60;99.90;;;;;;5084636;28;20459;-85
2024/02/21 05:19:40;;;;;;;11.95;7.32;;;9.60;99.90;;;;;;5070414;28;20021;-85
2024/02/21 05:22:06;;;;;;;17.48;7.90;;;9.60;99.90;;;;;;5075747;28;20396;-85
2024/02/21 05:24:32;;;;;;;17.05;8.55;;;9.60;99.90;;;;;;5092070;28;20379;-85
2024/02/21 05:26:57;;;;;;;18.05;9.18;;;9.60;99.90;;;;;;5090923;28;20421;-85
2024/02/21 05:29:23;;;;;;;13.65;8.15;;;9.60;99.90;;;;;;5088885;28;20032;-85
2024/02/21 05:31:51;;;;;;;20.38;9.52;;;9.60;99.90;;;;;;5075800;28;20036;-83
2024/02/21 05:34:17;;;;;;;16.13;8.98;;;9.60;99.90;;;;;;5070650;28;20027;-83
2024/02/21 05:36:43;;;;;;;14.73;9.02;;;9.60;99.90;;;;;;5069876;28;20020;-83
2024/02/21 05:39:09;;;;;;;26.10;9.02;;;9.70;99.90;;;;;;5071762;28;20070;-84
2024/02/21 05:41:35;;;;;;;16.73;8.15;;;9.60;99.90;;;;;;5069979;28;20045;-84
2024/02/21 05:44:01;;;;;;;19.20;9.27;;;9.60;99.90;;;;;;5070783;28;20476;-85
2024/02/21 05:46:26;;;;;;;17.45;9.20;;;9.60;99.90;;;;;;5071394;28;20032;-84
2024/02/21 05:48:52;;;;;;;18.42;9.77;;;9.60;99.90;;;;;;5070763;28;20039;-84
2024/02/21 05:51:17;;;;;;;15.80;8.70;;;9.60;99.90;;;;;;5084826;28;20115;-84
2024/02/21 05:53:43;;;;;;;13.63;8.75;;;9.60;99.90;;;;;;5070606;28;20120;-83
2024/02/21 05:56:12;;;;;;;22.83;9.70;;;9.60;99.90;;;;;;5078873;28;20020;-84
2024/02/21 05:58:38;;;;;;;16.45;8.32;;;9.50;99.90;;;;;;5090917;28;20113;-84
2024/02/21 06:01:04;;;;;;;16.67;9.02;;;9.50;99.90;;;;;;5090672;28;20044;-83
2024/02/21 06:03:30;;;;;;;20.83;8.38;;;9.50;99.90;;;;;;5091179;28;20036;-84
2024/02/21 06:05:56;;;;;;;17.40;9.18;;;9.50;99.90;;;;;;5088565;28;20028;-84
2024/02/21 06:08:21;;;;;;;23.67;9.15;;;9.50;99.90;;;;;;5085160;28;20422;-83
2024/02/21 06:10:48;;;;;;;16.77;7.95;;;9.40;99.90;;;;;;5070647;28;20024;-84
2024/02/21 06:13:14;;;;;;;23.98;9.70;;;9.50;99.90;;;;;;5070851;28;20498;-86
2024/02/21 06:15:39;;;;;;;23.05;9.85;;;9.40;99.90;;;;;;5070682;28;20040;-82
2024/02/21 06:18:05;;;;;;;21.23;9.25;;;9.40;99.90;;;;;;5082632;28;20040;-83
2024/02/21 06:20:31;;;;;;;23.90;8.98;;;9.40;99.90;;;;;;5080031;28;20031;-83
2024/02/21 06:22:57;;;;;;;19.85;9.27;;;9.40;99.90;;;;;;5087175;28;20421;-83
2024/02/21 06:25:23;;;;;;;20.95;9.38;;;9.40;99.90;;;;;;5085117;28;20070;-82
2024/02/21 06:27:48;;;;;;;25.13;9.88;;;9.40;99.90;;;;;;5088454;28;20040;-81
2024/02/21 06:30:14;;;;;;;27.30;9.95;;;9.40;99.90;;;;;;5085055;28;20275;-82
2024/02/21 06:32:39;;;;;;;23.48;9.52;;;9.40;99.90;;;;;;5073028;28;20034;-81
2024/02/21 06:35:05;;;;;;;24.00;9.18;;;9.40;99.90;;;;;;5085166;28;20024;-82
2024/02/21 06:37:32;;;;;;;23.75;10.05;;;9.40;99.90;;;;;;5081541;28;20032;-81
2024/02/21 06:39:58;;;;;;;25.20;9.88;;;9.40;99.90;;;;;;5090431;28;20153;-81
2024/02/21 06:42:25;;;;;;;26.35;9.23;;;9.40;99.90;;;;;;5091794;28;20114;-81
2024/02/21 06:44:51;;;;;;;17.88;9.18;;;9.40;99.90;;;;;;5093775;28;20028;-81
2024/02/21 06:47:17;;;;;;;30.27;11.88;;;9.40;99.90;;;;;;5094582;28;20017;-81
2024/02/21 06:49:42;;;;;;;23.48;10.02;;;9.30;99.90;;;;;;5094493;28;20035;-82
2024/02/21 06:52:08;;;;;;;24.85;10.02;;;9.40;99.90;;;;;;5094260;28;20028;-83
2024/02/21 06:54:33;;;;;;;24.48;10.50;;;9.40;99.90;;;;;;5085464;28;20376;-81
2024/02/21 06:56:59;;;;;;;18.10;9.63;;;9.30;99.90;;;;;;5087851;28;20028;-82
2024/02/21 06:59:24;;;;;;;19.73;10.20;;;9.40;99.90;;;;;;5091763;28;20032;-82
2024/02/21 07:01:53;;;;;;;24.63;11.00;;;9.30;99.90;;;;;;5093901;28;20022;-81
2024/02/21 07:04:18;;;;;;;23.35;10.10;;;9.30;99.90;;;;;;5093858;28;20043;-81
2024/02/21 07:06:44;;;;;;;18.45;8.90;;;9.30;99.90;;;;;;5092250;28;20024;-83
2024/02/21 07:09:09;;;;;;;23.65;10.68;;;9.40;99.90;;;;;;5093473;28;20028;-82
2024/02/21 07:11:35;;;;;;;22.35;9.48;;;9.40;99.90;;;;;;5092959;28;20520;-82
2024/02/21 07:14:00;;;;;;;24.55;10.60;;;9.40;99.90;;;;;;5094177;28;20042;-82
2024/02/21 07:16:28;;;;;;;23.85;10.27;;;9.40;99.90;;;;;;5075570;28;20021;-82
2024/02/21 07:18:54;;;;;;;20.00;11.63;;;9.40;99.90;;;;;;5091140;28;20055;-82
2024/02/21 07:21:20;;;;;;;26.23;11.20;;;9.40;99.90;;;;;;5093155;28;20020;-82
2024/02/21 07:23:45;;;;;;;21.52;11.55;;;9.50;99.90;;;;;;5093964;28;20035;-82
2024/02/21 07:26:11;;;;;;;26.95;12.18;;;9.50;99.90;;;;;;5092421;28;20543;-82
2024/02/21 07:28:36;;;;;;;17.85;10.75;;;9.40;99.90;;;;;;5080437;28;20139;-82
2024/02/21 07:31:03;;;;;;;26.60;12.32;;;9.50;99.90;;;;;;5091377;28;20031;-82
2024/02/21 07:33:30;;;;;;;25.58;12.70;;;9.50;99.90;;;;;;5090411;28;20039;-83
2024/02/21 07:35:56;;;;;;;24.42;11.95;;;9.50;99.90;;;;;;5079611;28;20021;-82
2024/02/21 07:38:22;;;;;;;23.70;11.55;;;9.50;99.90;;;;;;5075931;28;20123;-82
2024/02/21 07:40:48;;;;;;;23.73;11.07;;;9.50;99.90;;;;;;5070449;28;20055;-82
2024/02/21 07:43:13;;;;;;;29.15;12.40;;;9.50;99.90;;;;;;5071485;28;20036;-84
2024/02/21 07:45:39;;;;;;;27.25;12.40;;;9.50;99.90;;;;;;5070563;28;20379;-82
2024/02/21 07:48:06;;;;;;;22.48;12.18;;;9.50;99.90;;;;;;5084271;28;20024;-82
2024/02/21 07:50:31;;;;;;;23.45;11.43;;;9.50;99.90;;;;;;5090215;28;20121;-82
2024/02/21 07:52:57;;;;;;;24.85;11.32;;;9.50;99.90;;;;;;5088978;28;20896;-82
2024/02/21 07:55:23;;;;;;;22.95;11.93;;;9.50;99.90;;;;;;5087055;28;20035;-82
2024/02/21 07:57:49;;;;;;;25.33;11.52;;;9.50;99.90;;;;;;5081217;28;20056;-82
2024/02/21 08:00:19;;;;;;;20.33;12.48;;;9.50;99.90;;;;;;5092020;28;20028;-83
2024/02/21 08:02:45;;;;;;;22.38;11.73;;;9.50;99.90;;;;;;5075307;28;20130;-83
2024/02/21 08:05:12;;;;;;;24.55;12.23;;;9.50;99.90;;;;;;5091914;28;20024;-84
2024/02/21 08:07:38;;;;;;;24.35;12.57;;;9.50;99.90;;;;;;5089312;28;20046;-83
2024/02/21 08:10:04;;;;;;;19.17;11.65;;;9.60;99.90;;;;;;5092642;28;20101;-83
2024/02/21 08:12:30;;;;;;;25.52;11.27;;;9.60;99.90;;;;;;5090684;28;20024;-82
2024/02/21 08:14:55;;;;;;;19.08;11.85;;;9.60;99.90;;;;;;5083973;28;20027;-84
2024/02/21 08:17:21;;;;;;;23.02;10.45;;;9.60;99.90;;;;;;5084004;28;20119;-84
2024/02/21 08:19:49;;;;;;;19.15;11.73;;;9.60;99.90;;;;;;5087488;28;20055;-84
2024/02/21 08:22:14;;;;;;;23.75;12.23;;;9.60;99.90;;;;;;5071917;28;20079;-85
2024/02/21 08:24:40;;;;;;;20.50;11.50;;;9.70;99.90;;;;;;5074330;28;20032;-84
2024/02/21 08:27:05;;;;;;;20.50;11.50;;;9.60;99.90;;;;;;5091175;28;20048;-84
2024/02/21 08:29:31;;;;;;;22.83;12.23;;;9.60;99.90;;;;;;5080262;28;20048;-84
2024/02/21 08:31:57;;;;;;;23.27;12.55;;;9.60;99.90;;;;;;5083254;28;20074;-84
2024/02/21 08:34:22;;;;;;;20.23;13.27;;;9.60;99.90;;;;;;5075808;28;20044;-84
2024/02/21 08:36:48;;;;;;;26.10;12.02;;;9.60;99.90;;;;;;5077024;28;20032;-85
2024/02/21 08:39:16;;;;;;;20.70;12.23;;;10.30;99.90;;;;;;5081200;28;20021;-83
2024/02/21 08:41:42;;;;;;;23.42;12.48;;;9.60;99.90;;;;;;5081182;28;20770;-84
2024/02/21 08:44:08;;;;;;;20.35;11.48;;;9.60;99.90;;;;;;5087033;28;20047;-85
2024/02/21 08:46:33;;;;;;;24.20;13.02;;;9.60;99.90;;;;;;5089084;28;20460;-84
2024/02/21 08:48:59;;;;;;;27.75;11.73;;;9.60;99.90;;;;;;5092508;28;20020;-82
2024/02/21 08:51:25;;;;;;;20.75;11.68;;;9.60;99.90;;;;;;5091652;28;20103;-85
2024/02/21 08:53:51;;;;;;;20.40;12.38;;;9.60;99.90;;;;;;5092558;28;20024;-85
2024/02/21 08:56:17;;;;;;;19.10;11.30;;;9.60;99.90;;;;;;5092081;28;20081;-85
2024/02/21 08:58:43;;;;;;;21.52;12.10;;;9.60;99.90;;;;;;5071831;28;20109;-85
2024/02/21 09:01:10;;;;;;;31.70;11.77;;;9.60;99.90;;;;;;5080521;28;20035;-86
2024/02/21 09:03:39;;;;;;;19.30;10.85;;;9.60;99.90;;;;;;5080962;28;20036;-89
2024/02/21 09:06:09;;;;;;;21.58;12.10;;;9.60;99.90;;;;;;5078831;28;20031;-84
2024/02/21 09:08:35;;;;;;;22.25;11.18;;;9.60;99.90;;;;;;5092027;28;20093;-87
2024/02/21 09:11:03;;;;;;;21.00;10.75;;;9.60;99.90;;;;;;5092330;28;20058;-82
2024/02/21 09:13:30;;;;;;;22.92;11.55;;;9.60;99.90;;;;;;5092072;28;20054;-83
2024/02/21 09:15:55;;;;;;;17.90;10.18;;;9.70;99.90;;;;;;5092322;28;20020;-83
2024/02/21 09:18:21;;;;;;;23.13;11.25;;;9.60;99.90;;;;;;5085398;28;20470;-82
2024/02/21 09:20:47;;;;;;;19.08;10.85;;;9.70;99.90;;;;;;5088205;28;20023;-84
2024/02/21 09:23:13;;;;;;;21.13;10.85;;;9.70;99.90;;;;;;5091838;28;20060;-85
2024/02/21 09:25:39;;;;;;;19.20;10.27;;;9.70;99.90;;;;;;5081143;28;20130;-84
2024/02/21 09:28:06;;;;;;;16.67;9.98;;;9.70;99.90;;;;;;5073598;28;20036;-84
2024/02/21 09:30:31;;;;;;;12.10;9.77;;;9.70;99.90;;;;;;5089536;28;20031;-84
2024/02/21 09:32:59;;;;;;;21.25;9.75;;;9.70;99.90;;;;;;5089435;28;20016;-85
2024/02/21 09:35:26;;;;;;;18.83;10.68;;;9.70;99.90;;;;;;5092049;28;20036;-85
2024/02/21 09:37:52;;;;;;;20.00;9.38;;;9.70;99.90;;;;;;5091687;28;20028;-84
2024/02/21 09:40:17;;;;;;;16.75;9.93;;;9.70;99.90;;;;;;5088796;28;20052;-83
2024/02/21 09:42:46;;;;;;;16.38;9.23;;;9.80;99.90;;;;;;5078038;28;20036;-89
2024/02/21 09:45:22;;;;;;;18.05;9.55;;;9.80;99.90;;;;;;5095158;28;20032;-86
2024/02/21 09:48:12;;;;;;;13.20;8.88;;;10.10;99.90;;;;;;5089610;28;20210;-87
2024/02/21 09:50:43;;;;;;;14.85;8.07;;;9.80;99.90;;;;;;5091646;28;20031;-87
2024/02/21 09:53:11;;;;;;;16.77;9.43;;;9.80;99.90;;;;;;5092288;28;20043;-85
2024/02/21 09:55:40;;;;;;;20.35;10.13;;;9.90;99.90;;;;;;5091264;28;20081;-86
2024/02/21 09:58:05;;;;;;;16.52;9.13;;;9.80;99.90;;;;;;5092031;28;20028;-86
2024/02/21 10:00:31;;;;;;;17.30;9.52;;;9.80;99.90;;;;;;5090538;28;20029;-87
2024/02/21 10:02:58;;;;;;;20.42;8.65;;;9.90;99.90;;;;;;5086557;28;20071;-87
2024/02/21 10:05:24;;;;;;;12.52;8.85;;;9.90;99.90;;;;;;5087119;28;20056;-86
2024/02/21 10:07:51;;;;;;;16.52;9.00;;;9.90;99.90;;;;;;5071393;28;20079;-86
2024/02/21 10:10:19;;;;;;;12.57;7.97;;;9.90;99.90;;;;;;5068496;28;20059;-87
2024/02/21 10:12:54;;;;;;;14.93;8.73;;;9.90;99.90;;;;;;5076340;28;20574;-86
2024/02/21 10:15:24;;;;;;;17.20;9.30;;;10.00;99.90;;;;;;5089042;28;20031;-86
2024/02/21 10:17:57;;;;;;;13.70;7.63;;;10.00;99.90;;;;;;5091538;28;20031;-86
2024/02/21 10:20:23;;;;;;;13.20;8.48;;;10.00;99.90;;;;;;5093002;28;20119;-85
2024/02/21 10:22:49;;;;;;;11.45;8.52;;;10.00;99.90;;;;;;5086892;28;20134;-85
2024/02/21 10:25:14;;;;;;;12.27;7.60;;;10.00;99.90;;;;;;5082726;28;20074;-80
2024/02/21 10:27:41;;;;;;;12.38;7.88;;;10.10;99.90;;;;;;5072983;28;20047;-83
2024/02/21 10:30:12;;;;;;;8.88;7.47;;;10.10;99.90;;;;;;5073946;28;20032;-83
2024/02/21 10:32:49;;;;;;;13.02;7.50;;;10.10;99.90;;;;;;5073331;28;20094;-82
2024/02/21 10:35:26;;;;;;;15.88;7.47;;;10.10;99.90;;;;;;5074303;28;20116;-83
2024/02/21 10:37:55;;;;;;;10.88;6.97;;;10.20;99.90;;;;;;5092761;28;20410;-83
2024/02/21 10:40:30;;;;;;;10.18;6.68;;;10.20;99.90;;;;;;5086878;28;20514;-86
2024/02/21 10:43:00;;;;;;;8.70;6.38;;;10.20;99.90;;;;;;5081376;28;20098;-87
2024/02/21 10:45:34;;;;;;;8.80;6.80;;;10.20;99.90;;;;;;5077720;28;20074;-86
2024/02/21 10:48:15;;;;;;;11.70;6.68;;;10.20;99.90;;;;;;5076082;28;20089;-85
2024/02/21 10:50:47;;;;;;;12.35;7.18;;;10.20;99.90;;;;;;5094987;28;20114;-85
2024/02/21 10:53:19;;;;;;;9.65;8.75;;;10.10;99.90;;;;;;5072485;28;20025;-87
2024/02/21 10:55:56;;;;;;;17.88;7.97;;;10.20;99.90;;;;;;5086472;28;20043;-86
2024/02/21 10:58:22;;;;;;;10.63;8.43;;;10.10;99.90;;;;;;5090960;28;20662;-86
2024/02/21 11:00:49;;;;;;;14.13;7.85;;;10.10;99.90;;;;;;5084688;28;20079;-84
2024/02/21 11:03:15;;;;;;;14.77;8.25;;;10.10;99.90;;;;;;5103964;28;20039;-87
2024/02/21 11:05:42;;;;;;;12.48;9.18;;;10.10;99.90;;;;;;5112628;28;20536;-83
2024/02/21 11:08:08;;;;;;;10.80;8.75;;;10.00;99.90;;;;;;5078925;28;20034;-86
2024/02/21 11:10:37;;;;;;;9.70;8.38;;;10.00;99.90;;;;;;5085079;28;20021;-88
2024/02/21 11:13:09;;;;;;;15.02;8.63;;;10.00;99.90;;;;;;5087195;28;20096;-86
2024/02/21 11:15:34;;;;;;;14.15;9.68;;;10.00;99.90;;;;;;5095078;28;20024;-87
2024/02/21 11:18:00;;;;;;;15.43;8.48;;;10.00;99.90;;;;;;5083001;28;20052;-84
2024/02/21 11:20:34;;;;;;;15.02;8.90;;;10.10;99.90;;;;;;5080374;28;20080;-85
2024/02/21 11:23:00;;;;;;;13.68;8.55;;;10.00;99.90;;;;;;5081062;28;20089;-85
2024/02/21 11:25:26;;;;;;;14.48;8.43;;;10.20;99.90;;;;;;5090155;28;20091;-85
2024/02/21 11:27:59;;;;;;;13.32;9.82;;;10.10;99.90;;;;;;5082453;28;20536;-84
2024/02/21 11:30:32;;;;;;;12.55;9.65;;;10.10;99.90;;;;;;5087250;28;20028;-85
2024/02/21 11:33:02;;;;;;;14.20;10.13;;;10.10;99.90;;;;;;5092093;28;20475;-83
2024/02/21 11:35:33;;;;;;;11.63;9.05;;;10.20;99.90;;;;;;5087339;28;20032;-86
2024/02/21 11:38:15;;;;;;;16.85;9.75;;;10.30;99.90;;;;;;5092039;28;20249;-85
2024/02/21 11:40:43;;;;;;;12.30;7.97;;;10.30;99.90;;;;;;5091469;28;20101;-84
2024/02/21 11:43:08;;;;;;;15.30;9.10;;;10.30;99.90;;;;;;5093082;28;20044;-85
2024/02/21 11:45:34;;;;;;;12.13;8.20;;;10.40;99.90;;;;;;5093174;28;20017;-85
2024/02/21 11:48:03;;;;;;;8.98;7.95;;;10.40;99.90;;;;;;5083173;28;20502;-85
2024/02/21 11:50:29;;;;;;;9.18;8.30;;;10.40;99.90;;;;;;5072787;28;20138;-85
2024/02/21 11:52:55;;;;;;;11.88;7.68;;;10.50;99.90;;;;;;5072158;28;20111;-86
2024/02/21 11:55:22;;;;;;;10.73;7.43;;;10.50;99.90;;;;;;5078231;28;20024;-85
2024/02/21 11:57:50;;;;;;;10.57;7.13;;;10.50;99.90;;;;;;5091479;28;20478;-84
2024/02/21 12:00:17;;;;;;;8.60;7.40;;;10.50;99.90;;;;;;5092231;28;20028;-84
2024/02/21 12:02:45;;;;;;;17.98;8.20;;;10.50;99.90;;;;;;5085922;28;20581;-82
2024/02/21 12:05:11;;;;;;;11.10;6.88;;;10.50;99.90;;;;;;5091758;28;20032;-85
2024/02/21 12:07:39;;;;;;;10.05;7.03;;;10.50;99.90;;;;;;5082951;28;20020;-85
2024/02/21 12:10:09;;;;;;;8.23;6.70;;;10.50;99.90;;;;;;5086238;28;20436;-85
2024/02/21 12:12:37;;;;;;;11.93;7.43;;;10.50;99.90;;;;;;5087318;28;20491;-84
2024/02/21 12:15:06;;;;;;;12.82;6.65;;;10.50;99.90;;;;;;5088939;28;20119;-84
2024/02/21 12:17:36;;;;;;;8.27;7.22;;;10.50;99.90;;;;;;5080578;28;20187;-85
2024/02/21 12:20:08;;;;;;;10.73;7.03;;;10.50;99.90;;;;;;5073001;28;20086;-83
2024/02/21 12:22:35;;;;;;;8.32;6.97;;;10.50;99.90;;;;;;5082017;28;20016;-84
2024/02/21 12:25:04;;;;;;;10.75;7.22;;;10.50;99.90;;;;;;5092409;28;20490;-83
2024/02/21 12:27:29;;;;;;;9.73;6.90;;;10.90;99.90;;;;;;5075343;28;20103;-83
2024/02/21 12:29:55;;;;;;;9.60;6.85;;;10.50;99.90;;;;;;5069486;28;20719;-84
2024/02/21 12:32:21;;;;;;;9.77;7.35;;;10.50;99.90;;;;;;5078265;28;20024;-84
2024/02/21 12:34:46;;;;;;;8.15;7.22;;;10.50;99.90;;;;;;5087954;28;20024;-84
2024/02/21 12:37:13;;;;;;;10.55;7.13;;;10.50;99.90;;;;;;5084645;28;20097;-84
2024/02/21 12:39:38;;;;;;;15.90;7.07;;;10.40;99.90;;;;;;5088190;28;20099;-84